createdAt,value
2022-11-19T00:02:10.254Z,2.03
2022-11-19T00:04:38.073Z,1.03
2022-11-19T00:07:06.514Z,2.00
2022-11-19T00:09:35.937Z,1.00
2022-11-19T00:12:21.016Z,0.73
2022-11-19T00:14:49.578Z,0.83
2022-11-19T00:17:17.475Z,1.07
2022-11-19T00:19:45.836Z,0.93
2022-11-19T00:22:13.705Z,0.80
2022-11-19T00:24:42.951Z,0.90
2022-11-19T00:27:10.737Z,0.43
2022-11-19T00:29:38.573Z,0.50
2022-11-19T00:32:07.832Z,0.57
2022-11-19T00:34:36.065Z,2.00
2022-11-19T00:37:04.803Z,0.50
2022-11-19T00:39:32.959Z,1.90
2022-11-19T00:42:02.725Z,0.40
2022-11-19T00:44:35.711Z,0.40
2022-11-19T00:47:05.152Z,0.60
2022-11-19T00:49:35.674Z,0.50
2022-11-19T00:52:06.515Z,0.77
2022-11-19T00:54:34.510Z,0.43
2022-11-19T00:57:04.106Z,0.43
2022-11-19T00:59:31.861Z,1.97
2022-11-19T01:02:00.702Z,0.83
2022-11-19T01:04:28.620Z,0.50
2022-11-19T01:06:57.902Z,1.20
2022-11-19T01:09:27.642Z,3.33
2022-11-19T01:11:55.480Z,0.50
2022-11-19T01:14:24.964Z,0.43
2022-11-19T01:16:52.893Z,0.63
2022-11-19T01:19:21.019Z,0.50
2022-11-19T01:21:49.455Z,0.50
2022-11-19T01:24:17.216Z,0.33
2022-11-19T01:26:46.175Z,0.60
2022-11-19T01:29:14.603Z,0.40
2022-11-19T01:31:44.944Z,1.73
2022-11-19T01:34:13.195Z,2.33
2022-11-19T01:36:40.947Z,2.23
2022-11-19T01:39:09.113Z,0.63
2022-11-19T01:41:37.232Z,1.80
2022-11-19T01:44:06.432Z,0.77
2022-11-19T01:46:35.106Z,1.10
2022-11-19T01:49:06.666Z,1.57
2022-11-19T01:51:36.829Z,1.07
2022-11-19T01:54:07.011Z,1.07
2022-11-19T01:56:34.938Z,1.77
2022-11-19T01:59:05.260Z,1.67
2022-11-19T02:01:33.967Z,1.83
2022-11-19T02:04:02.941Z,1.87
2022-11-19T02:06:33.282Z,2.70
2022-11-19T02:09:01.507Z,1.37
2022-11-19T02:11:35.140Z,1.17
2022-11-19T02:14:06.754Z,3.53
2022-11-19T02:16:40.076Z,1.90
2022-11-19T02:19:14.255Z,2.50
2022-11-19T02:21:45.852Z,1.60
2022-11-19T02:24:29.448Z,1.90
2022-11-19T02:27:14.420Z,3.63
2022-11-19T02:30:00.966Z,3.00
2022-11-19T02:32:32.373Z,2.00
2022-11-19T02:35:03.248Z,3.23
2022-11-19T02:37:36.182Z,3.63
2022-11-19T02:40:06.503Z,5.37
2022-11-19T02:42:36.799Z,3.93
2022-11-19T02:45:07.763Z,4.43
2022-11-19T02:47:39.884Z,6.73
2022-11-19T02:50:10.404Z,4.07
2022-11-19T02:52:39.129Z,3.13
2022-11-19T02:55:07.884Z,4.20
2022-11-19T02:57:36.620Z,2.13
2022-11-19T03:00:24.342Z,2.90
2022-11-19T03:03:17.403Z,5.77
2022-11-19T03:05:47.233Z,5.13
2022-11-19T03:08:15.100Z,5.73
2022-11-19T03:10:46.527Z,4.27
2022-11-19T03:13:46.765Z,5.13
2022-11-19T03:16:35.728Z,4.37
2022-11-19T03:19:07.229Z,4.73
2022-11-19T03:21:36.280Z,8.20
2022-11-19T03:24:06.397Z,5.43
2022-11-19T03:26:37.460Z,5.63
2022-11-19T03:29:07.918Z,3.73
2022-11-19T03:31:37.852Z,3.40
2022-11-19T03:34:12.863Z,3.87
2022-11-19T03:36:42.294Z,2.90
2022-11-19T03:39:14.039Z,5.83
2022-11-19T03:41:42.437Z,3.73
2022-11-19T03:44:12.098Z,2.83
2022-11-19T03:46:42.150Z,2.47
2022-11-19T03:49:10.802Z,4.90
2022-11-19T03:51:43.629Z,3.57
2022-11-19T03:54:12.462Z,4.70
2022-11-19T03:56:41.708Z,3.20
2022-11-19T03:59:13.266Z,4.63
2022-11-19T04:01:44.420Z,3.57
2022-11-19T04:04:30.109Z,3.90
2022-11-19T04:06:57.874Z,5.20
2022-11-19T04:09:25.639Z,6.07
2022-11-19T04:14:20.954Z,10.53
2022-11-19T04:16:50.474Z,7.33
2022-11-19T04:19:19.611Z,5.70
2022-11-19T04:21:47.993Z,8.77
2022-11-19T04:24:16.364Z,8.43
2022-11-19T04:26:44.900Z,7.07
2022-11-19T04:29:12.985Z,6.43
2022-11-19T04:31:41.589Z,8.67
2022-11-19T04:34:10.709Z,7.87
2022-11-19T04:36:42.205Z,8.23
2022-11-19T04:39:10.964Z,8.97
2022-11-19T04:41:39.020Z,8.90
2022-11-19T04:44:06.911Z,9.00
2022-11-19T04:46:35.186Z,10.50
2022-11-19T04:49:03.220Z,7.37
2022-11-19T04:51:32.517Z,6.83
2022-11-19T04:54:00.394Z,7.93
2022-11-19T04:56:31.103Z,9.03
2022-11-19T04:59:00.585Z,9.07
2022-11-19T05:01:28.896Z,10.10
2022-11-19T05:03:57.941Z,8.87
2022-11-19T05:06:25.784Z,9.07
2022-11-19T05:08:54.927Z,10.23
2022-11-19T05:11:24.138Z,6.40
2022-11-19T05:13:52.457Z,6.67
2022-11-19T05:16:20.508Z,8.00
2022-11-19T05:18:48.580Z,8.30
2022-11-19T05:21:16.438Z,11.37
2022-11-19T05:23:44.474Z,10.00
2022-11-19T05:26:17.198Z,7.87
2022-11-19T05:28:46.369Z,8.30
2022-11-19T05:31:14.413Z,12.37
2022-11-19T05:33:42.213Z,10.10
2022-11-19T05:36:10.586Z,11.87
2022-11-19T05:38:41.800Z,6.83
2022-11-19T05:41:10.129Z,9.03
2022-11-19T05:43:39.864Z,6.80
2022-11-19T05:46:07.496Z,10.40
2022-11-19T05:48:35.343Z,13.80
2022-11-19T05:51:03.571Z,11.37
2022-11-19T05:53:31.680Z,9.07
2022-11-19T05:56:02.801Z,7.87
2022-11-19T05:58:30.497Z,9.73
2022-11-19T06:01:01.215Z,7.77
2022-11-19T06:03:33.802Z,8.33
2022-11-19T06:06:01.905Z,11.50
2022-11-19T06:08:29.747Z,9.50
2022-11-19T06:10:58.574Z,11.23
2022-11-19T06:13:26.756Z,12.10
2022-11-19T06:15:55.210Z,10.30
2022-11-19T06:18:24.743Z,12.80
2022-11-19T06:20:53.584Z,10.50
2022-11-19T06:23:21.295Z,10.30
2022-11-19T06:25:50.416Z,8.93
2022-11-19T06:28:18.557Z,8.03
2022-11-19T06:30:46.821Z,12.20
2022-11-19T06:33:14.746Z,13.73
2022-11-19T06:35:44.356Z,10.70
2022-11-19T06:38:12.215Z,14.33
2022-11-19T06:40:39.989Z,12.73
2022-11-19T06:43:08.015Z,17.13
2022-11-19T06:45:36.628Z,7.33
2022-11-19T06:48:04.990Z,12.27
2022-11-19T06:50:32.860Z,7.57
2022-11-19T06:53:03.090Z,7.67
2022-11-19T06:55:31.759Z,8.17
2022-11-19T06:58:03.163Z,7.90
2022-11-19T07:00:30.882Z,15.63
2022-11-19T07:02:58.626Z,9.67
2022-11-19T07:05:26.932Z,12.80
2022-11-19T07:07:58.835Z,10.03
2022-11-19T07:10:32.148Z,7.27
2022-11-19T07:12:59.960Z,8.63
2022-11-19T07:15:28.025Z,23.73
2022-11-19T07:17:55.784Z,8.93
2022-11-19T07:20:23.701Z,8.47
2022-11-19T07:22:54.869Z,7.57
2022-11-19T07:25:26.953Z,6.03
2022-11-19T07:27:56.103Z,7.07
2022-11-19T07:30:23.895Z,6.83
2022-11-19T07:32:54.150Z,7.23
2022-11-19T07:35:24.825Z,9.30
2022-11-19T07:37:52.563Z,8.50
2022-11-19T07:40:20.843Z,9.37
2022-11-19T07:42:50.046Z,7.77
2022-11-19T07:45:20.535Z,7.43
2022-11-19T07:47:48.802Z,7.10
2022-11-19T07:50:17.452Z,9.37
2022-11-19T07:52:45.379Z,9.23
2022-11-19T07:55:13.313Z,8.27
2022-11-19T07:57:41.367Z,10.20
2022-11-19T08:00:09.679Z,16.50
2022-11-19T08:02:39.048Z,6.67
2022-11-19T08:05:07.572Z,20.53
2022-11-19T08:07:35.538Z,9.17
2022-11-19T08:10:03.462Z,8.90
2022-11-19T08:12:31.481Z,5.97
2022-11-19T08:15:08.783Z,8.80
2022-11-19T08:17:50.476Z,9.33
2022-11-19T08:20:20.261Z,7.20
2022-11-19T08:22:48.011Z,6.87
2022-11-19T08:25:15.804Z,7.77
2022-11-19T08:27:47.736Z,8.70
2022-11-19T08:30:16.491Z,10.07
2022-11-19T08:32:44.735Z,8.17
2022-11-19T08:35:12.629Z,8.20
2022-11-19T08:37:41.856Z,10.53
2022-11-19T08:40:10.859Z,6.67
2022-11-19T08:42:55.944Z,5.50
2022-11-19T08:45:23.753Z,6.37
2022-11-19T08:47:51.589Z,5.57
2022-11-19T08:50:19.877Z,6.93
2022-11-19T08:52:55.235Z,6.00
2022-11-19T08:55:23.609Z,7.90
2022-11-19T08:57:52.856Z,6.07
2022-11-19T09:00:21.318Z,5.63
2022-11-19T09:02:49.199Z,5.90
2022-11-19T09:05:17.596Z,5.20
2022-11-19T09:07:45.747Z,5.30
2022-11-19T09:10:15.125Z,5.73
2022-11-19T09:12:43.239Z,5.97
2022-11-19T09:15:11.426Z,5.50
2022-11-19T09:17:45.334Z,5.23
2022-11-19T09:20:14.800Z,5.83
2022-11-19T09:22:42.747Z,7.23
2022-11-19T09:25:10.705Z,5.07
2022-11-19T09:27:40.029Z,7.47
2022-11-19T09:30:09.183Z,8.37
2022-11-19T09:32:38.388Z,6.60
2022-11-19T09:35:06.660Z,6.20
2022-11-19T09:37:36.420Z,5.73
2022-11-19T09:40:05.977Z,6.47
2022-11-19T09:42:46.288Z,5.57
2022-11-19T09:45:21.071Z,6.43
2022-11-19T09:47:59.906Z,6.30
2022-11-19T09:50:29.720Z,5.03
2022-11-19T09:52:59.615Z,9.77
2022-11-19T09:55:30.715Z,3.43
2022-11-19T09:57:59.746Z,6.23
2022-11-19T10:00:30.315Z,6.83
2022-11-19T10:02:58.341Z,5.10
2022-11-19T10:05:30.683Z,7.03
2022-11-19T10:08:04.613Z,7.87
2022-11-19T10:10:40.981Z,9.70
2022-11-19T10:13:26.219Z,6.97
2022-11-19T10:16:00.791Z,10.30
2022-11-19T10:18:34.001Z,6.83
2022-11-19T10:21:06.022Z,7.03
2022-11-19T10:23:39.285Z,5.67
2022-11-19T10:26:12.373Z,5.97
2022-11-19T10:28:42.803Z,6.10
2022-11-19T10:31:14.936Z,6.70
2022-11-19T10:33:50.400Z,5.80
2022-11-19T10:36:21.244Z,6.37
2022-11-19T10:38:52.396Z,10.00
2022-11-19T10:41:23.147Z,7.03
2022-11-19T10:43:53.311Z,5.37
2022-11-19T10:46:26.287Z,6.13
2022-11-19T10:48:57.484Z,4.90
2022-11-19T10:51:28.544Z,4.60
2022-11-19T10:53:56.813Z,6.50
2022-11-19T10:56:27.242Z,7.33
2022-11-19T10:58:59.496Z,4.67
2022-11-19T11:01:31.454Z,4.27
2022-11-19T11:04:02.260Z,6.33
2022-11-19T11:06:50.010Z,4.87
2022-11-19T11:09:29.468Z,3.63
2022-11-19T11:12:14.991Z,4.30
2022-11-19T11:14:55.600Z,4.23
2022-11-19T11:17:28.392Z,2.60
2022-11-19T11:20:00.187Z,2.63
2022-11-19T11:22:29.601Z,5.67
2022-11-19T11:25:04.100Z,4.43
2022-11-19T11:27:35.554Z,2.30
2022-11-19T11:30:11.346Z,2.07
2022-11-19T11:32:43.065Z,2.63
2022-11-19T11:35:31.758Z,4.17
2022-11-19T11:38:00.839Z,2.13
2022-11-19T11:40:29.466Z,3.17
2022-11-19T11:42:57.399Z,5.40
2022-11-19T11:45:32.258Z,2.40
2022-11-19T11:48:06.199Z,3.03
2022-11-19T11:50:35.979Z,2.47
2022-11-19T11:53:08.863Z,2.40
2022-11-19T11:55:38.926Z,2.73
2022-11-19T11:58:07.878Z,2.97
2022-11-19T12:00:37.652Z,3.70
2022-11-19T12:03:08.531Z,2.93
2022-11-19T12:05:47.096Z,3.73
2022-11-19T12:08:24.205Z,2.67
2022-11-19T12:10:59.019Z,3.73
2022-11-19T12:13:41.052Z,2.37
2022-11-19T12:16:12.813Z,2.63
2022-11-19T12:18:45.385Z,2.10
2022-11-19T12:21:17.560Z,2.43
2022-11-19T12:23:53.629Z,5.40
2022-11-19T12:26:24.657Z,2.37
2022-11-19T12:28:58.501Z,3.70
2022-11-19T12:31:33.718Z,2.50
2022-11-19T12:34:10.303Z,2.80
2022-11-19T12:36:42.479Z,3.00
2022-11-19T12:39:16.260Z,3.50
2022-11-19T12:42:00.097Z,4.00
2022-11-19T12:44:37.364Z,3.10
2022-11-19T12:47:10.954Z,3.93
2022-11-19T12:49:51.187Z,3.30
2022-11-19T12:52:28.780Z,8.07
2022-11-19T12:55:02.515Z,2.97
2022-11-19T12:57:36.684Z,5.13
2022-11-19T13:00:11.144Z,3.80
2022-11-19T13:02:43.036Z,6.00
2022-11-19T13:05:16.132Z,3.33
2022-11-19T13:07:46.090Z,2.90
2022-11-19T13:10:15.311Z,6.37
2022-11-19T13:12:45.422Z,4.33
2022-11-19T13:15:18.474Z,5.40
2022-11-19T13:17:52.113Z,5.63
2022-11-19T13:20:33.016Z,8.07
2022-11-19T13:23:04.336Z,4.57
2022-11-19T13:25:34.778Z,3.47
2022-11-19T13:28:03.712Z,5.57
2022-11-19T13:30:33.844Z,3.57
2022-11-19T13:33:04.222Z,5.27
2022-11-19T13:35:37.008Z,6.13
2022-11-19T13:38:12.835Z,8.30
2022-11-19T13:40:42.773Z,11.67
2022-11-19T13:43:34.178Z,8.77
2022-11-19T13:46:18.284Z,6.33
2022-11-19T13:48:48.748Z,7.50
2022-11-19T13:51:24.083Z,5.90
2022-11-19T13:53:54.525Z,7.73
2022-11-19T13:56:25.438Z,4.73
2022-11-19T13:58:55.468Z,6.23
2022-11-19T14:01:49.232Z,4.23
2022-11-19T14:04:31.753Z,5.23
2022-11-19T14:07:14.373Z,8.70
2022-11-19T14:09:48.864Z,6.40
2022-11-19T14:12:31.154Z,5.20
2022-11-19T14:15:22.767Z,5.40
2022-11-19T14:18:13.477Z,7.07
2022-11-19T14:20:59.978Z,28.60
2022-11-19T14:24:02.016Z,14.83
2022-11-19T14:26:52.245Z,6.40
2022-11-19T14:29:38.070Z,7.23
2022-11-19T14:32:30.510Z,7.63
2022-11-19T14:35:17.404Z,5.60
2022-11-19T14:37:47.073Z,7.43
2022-11-19T14:40:16.843Z,9.70
2022-11-19T14:43:14.240Z,9.07
2022-11-19T14:46:02.911Z,9.67
2022-11-19T14:48:33.185Z,7.33
2022-11-19T14:51:04.941Z,8.93
2022-11-19T14:53:33.117Z,11.27
2022-11-19T14:56:01.794Z,6.47
2022-11-19T14:58:30.681Z,6.80
2022-11-19T15:01:08.202Z,6.63
2022-11-19T15:03:38.900Z,7.90
2022-11-19T15:06:08.486Z,5.03
2022-11-19T15:08:47.469Z,7.27
2022-11-19T15:11:16.312Z,5.93
2022-11-19T15:13:44.871Z,4.47
2022-11-19T15:16:14.922Z,4.93
2022-11-19T15:19:03.752Z,5.80
2022-11-19T15:21:59.224Z,3.97
2022-11-19T15:24:33.498Z,4.57
2022-11-19T15:27:06.094Z,7.37
2022-11-19T15:29:49.345Z,4.20
2022-11-19T15:32:26.319Z,5.13
2022-11-19T15:35:10.787Z,4.47
2022-11-19T15:37:44.134Z,3.27
2022-11-19T15:40:13.987Z,4.17
2022-11-19T15:42:46.175Z,6.40
2022-11-19T15:45:16.984Z,3.80
2022-11-19T15:47:47.426Z,6.40
2022-11-19T15:50:17.657Z,5.77
2022-11-19T15:52:58.456Z,4.83
2022-11-19T15:55:28.922Z,3.90
2022-11-19T15:57:57.114Z,3.43
2022-11-19T16:00:27.717Z,5.07
2022-11-19T16:02:56.348Z,4.80
2022-11-19T16:05:26.894Z,7.03
2022-11-19T16:07:57.606Z,7.93
2022-11-19T16:10:26.517Z,7.43
2022-11-19T16:13:12.183Z,4.23
2022-11-19T16:16:05.591Z,5.40
2022-11-19T16:18:34.708Z,4.90
2022-11-19T16:21:02.929Z,6.43
2022-11-19T16:23:55.281Z,6.20
2022-11-19T16:26:23.880Z,4.33
2022-11-19T16:28:51.831Z,4.70
2022-11-19T16:31:20.251Z,6.30
2022-11-19T16:33:56.605Z,8.53
2022-11-19T16:36:25.653Z,3.87
2022-11-19T16:38:56.047Z,4.20
2022-11-19T16:41:41.856Z,4.63
2022-11-19T16:44:12.136Z,6.40
2022-11-19T16:46:40.071Z,5.17
2022-11-19T16:49:12.359Z,5.13
2022-11-19T16:51:41.098Z,3.37
2022-11-19T16:54:11.726Z,5.17
2022-11-19T16:56:42.521Z,4.37
2022-11-19T16:59:16.388Z,5.73
2022-11-19T17:01:51.149Z,4.33
2022-11-19T17:04:20.061Z,4.80
2022-11-19T17:06:48.494Z,6.50
2022-11-19T17:09:31.825Z,8.23
2022-11-19T17:12:17.376Z,4.73
2022-11-19T17:14:58.342Z,3.30
2022-11-19T17:17:41.514Z,3.47
2022-11-19T17:20:39.688Z,4.40
2022-11-19T17:23:11.967Z,10.37
2022-11-19T17:25:48.428Z,9.47
2022-11-19T17:28:23.433Z,8.90
2022-11-19T17:30:51.278Z,8.97
2022-11-19T17:33:20.638Z,4.73
2022-11-19T17:35:49.065Z,6.13
2022-11-19T17:38:17.941Z,6.37
2022-11-19T17:40:47.980Z,3.63
2022-11-19T17:43:33.755Z,4.13
2022-11-19T17:46:03.017Z,5.63
2022-11-19T17:48:30.991Z,4.33
2022-11-19T17:50:59.160Z,5.93
2022-11-19T17:53:27.887Z,4.83
2022-11-19T17:55:57.961Z,4.57
2022-11-19T17:58:25.603Z,5.70
2022-11-19T18:00:53.930Z,5.90
2022-11-19T18:03:22.187Z,5.53
2022-11-19T18:05:50.974Z,4.83
2022-11-19T18:08:19.092Z,5.50
2022-11-19T18:10:48.838Z,6.70
2022-11-19T18:13:20.180Z,9.00
2022-11-19T18:15:48.174Z,8.33
2022-11-19T18:18:16.162Z,6.97
2022-11-19T18:20:44.444Z,6.03
2022-11-19T18:23:13.453Z,4.23
2022-11-19T18:25:42.034Z,5.37
2022-11-19T18:28:10.637Z,4.70
2022-11-19T18:30:41.114Z,5.93
2022-11-19T18:33:11.430Z,5.20
2022-11-19T18:35:39.343Z,6.60
2022-11-19T18:38:07.482Z,5.67
2022-11-19T18:40:39.045Z,5.60
2022-11-19T18:43:24.807Z,6.00
2022-11-19T18:45:54.423Z,7.77
2022-11-19T18:48:22.160Z,6.60
2022-11-19T18:50:51.349Z,7.13
2022-11-19T18:53:19.306Z,6.87
2022-11-19T18:55:50.988Z,7.20
2022-11-19T18:58:18.877Z,6.73
2022-11-19T19:00:46.773Z,8.17
2022-11-19T19:03:15.930Z,7.23
2022-11-19T19:05:43.843Z,7.87
2022-11-19T19:08:14.331Z,6.83
2022-11-19T19:10:43.568Z,8.63
2022-11-19T19:13:12.586Z,7.07
2022-11-19T19:15:41.569Z,9.63
2022-11-19T19:18:09.773Z,7.37
2022-11-19T19:20:39.718Z,9.27
2022-11-19T19:23:07.842Z,8.40
2022-11-19T19:25:36.194Z,7.80
2022-11-19T19:28:04.026Z,10.63
2022-11-19T19:30:33.954Z,10.53
2022-11-19T19:33:04.412Z,9.40
2022-11-19T19:35:32.675Z,8.10
2022-11-19T19:38:02.219Z,9.10
2022-11-19T19:40:29.962Z,10.70
2022-11-19T19:43:03.977Z,8.70
2022-11-19T19:45:31.933Z,8.63
2022-11-19T19:48:00.033Z,8.63
2022-11-19T19:50:27.952Z,11.30
2022-11-19T19:52:56.280Z,9.33
2022-11-19T19:55:25.637Z,6.70
2022-11-19T19:57:55.197Z,11.07
2022-11-19T20:00:24.550Z,8.63
2022-11-19T20:02:53.685Z,9.20
2022-11-19T20:05:22.197Z,10.63
2022-11-19T20:07:51.864Z,12.97
2022-11-19T20:10:20.793Z,7.80
2022-11-19T20:13:07.531Z,10.93
2022-11-19T20:15:40.431Z,7.60
2022-11-19T20:18:08.816Z,8.43
2022-11-19T20:20:36.794Z,10.83
2022-11-19T20:23:05.291Z,8.50
2022-11-19T20:25:33.748Z,11.57
2022-11-19T20:28:04.046Z,14.30
2022-11-19T20:30:31.923Z,10.57
2022-11-19T20:33:02.383Z,10.00
2022-11-19T20:35:30.405Z,8.33
2022-11-19T20:38:02.214Z,8.77
2022-11-19T20:40:31.454Z,11.27
2022-11-19T20:43:17.086Z,13.40
2022-11-19T20:45:46.670Z,11.60
2022-11-19T20:48:15.097Z,10.57
2022-11-19T20:50:43.153Z,10.23
2022-11-19T20:53:11.760Z,10.03
2022-11-19T20:55:53.331Z,10.23
2022-11-19T20:58:28.184Z,15.17
2022-11-19T21:01:06.385Z,13.90
2022-11-19T21:03:34.792Z,12.30
2022-11-19T21:06:04.286Z,11.50
2022-11-19T21:08:33.245Z,10.53
2022-11-19T21:11:04.835Z,10.67
2022-11-19T21:13:32.641Z,10.47
2022-11-19T21:16:01.056Z,9.43
2022-11-19T21:18:36.614Z,11.67
2022-11-19T21:21:07.274Z,11.33
2022-11-19T21:23:35.658Z,10.90
2022-11-19T21:26:03.878Z,15.80
2022-11-19T21:28:32.742Z,11.80
2022-11-19T21:31:01.313Z,14.10
2022-11-19T21:33:31.363Z,12.67
2022-11-19T21:35:59.726Z,14.70
2022-11-19T21:38:27.636Z,11.27
2022-11-19T21:40:56.358Z,11.33
2022-11-19T21:43:25.339Z,13.53
2022-11-19T21:45:55.130Z,13.90
2022-11-19T21:48:23.415Z,10.03
2022-11-19T21:50:53.300Z,13.63
2022-11-19T21:53:21.470Z,14.40
2022-11-19T21:55:49.874Z,13.00
2022-11-19T21:58:17.888Z,10.20
2022-11-19T22:00:47.278Z,13.57
2022-11-19T22:03:16.364Z,11.33
2022-11-19T22:05:44.351Z,12.43
2022-11-19T22:08:13.716Z,10.53
2022-11-19T22:10:45.355Z,12.53
2022-11-19T22:13:13.825Z,12.90
2022-11-19T22:15:42.657Z,10.17
2022-11-19T22:18:10.606Z,13.33
2022-11-19T22:20:41.873Z,13.13
2022-11-19T22:23:09.675Z,11.73
2022-11-19T22:25:39.653Z,15.80
2022-11-19T22:28:07.680Z,12.30
2022-11-19T22:30:35.407Z,14.77
2022-11-19T22:33:04.008Z,14.07
2022-11-19T22:35:31.768Z,12.90
2022-11-19T22:38:00.192Z,11.90
2022-11-19T22:40:28.537Z,8.30
2022-11-19T22:42:58.311Z,7.67
2022-11-19T22:45:26.043Z,10.30
2022-11-19T22:47:54.358Z,8.63
2022-11-19T22:50:22.578Z,9.13
2022-11-19T22:52:50.914Z,8.90
2022-11-19T22:55:19.027Z,9.60
2022-11-19T22:57:47.169Z,10.33
2022-11-19T23:00:37.469Z,9.67
2022-11-19T23:03:07.111Z,8.27
2022-11-19T23:05:37.369Z,9.40
2022-11-19T23:08:05.701Z,9.80
2022-11-19T23:10:35.780Z,12.40
2022-11-19T23:13:21.457Z,9.17
2022-11-19T23:16:00.542Z,10.03
2022-11-19T23:18:28.618Z,12.07
2022-11-19T23:20:57.187Z,9.83
2022-11-19T23:23:25.256Z,11.00
2022-11-19T23:25:55.981Z,9.37
2022-11-19T23:28:23.745Z,8.07
2022-11-19T23:30:51.894Z,8.30
2022-11-19T23:33:21.918Z,10.60
2022-11-19T23:35:51.412Z,8.37
2022-11-19T23:38:20.993Z,10.07
2022-11-19T23:40:48.701Z,10.07
2022-11-19T23:43:16.955Z,10.70
2022-11-19T23:45:44.867Z,9.63
2022-11-19T23:48:13.192Z,8.83
2022-11-19T23:50:44.228Z,7.87
2022-11-19T23:53:12.005Z,10.70
2022-11-19T23:55:40.765Z,5.27
2022-11-19T23:58:08.836Z,6.00
